Time;durP1;ratioP1;P1;durP2;ratioP2;P2;SDS_P1;SDS_P2;PMS_P1;PMS_P2;Temp;Humidity;BMP_temperature;BMP_pressure;BME280_temperature;BME280_humidity;BME280_pressure;Samples;Min_cycle;Max_cycle;Signal;HPM_P1;HPM_P2
2022/07/08 00:00:30;;;;;;;2.53;1.30;;;16.40;99.90;;;;;;5071698;28;21030;-46
2022/07/08 00:02:57;;;;;;;2.10;1.53;;;16.40;99.90;;;;;;5072199;28;20510;-45
2022/07/08 00:05:24;;;;;;;1.53;1.37;;;16.40;99.90;;;;;;5072182;28;20477;-46
2022/07/08 00:07:51;;;;;;;3.83;1.83;;;16.40;99.90;;;;;;5072157;28;20444;-48
2022/07/08 00:10:19;;;;;;;2.07;1.30;;;16.40;99.90;;;;;;5072215;28;20444;-45
2022/07/08 00:12:46;;;;;;;2.33;1.80;;;16.50;99.90;;;;;;5072279;28;20541;-46
2022/07/08 00:15:13;;;;;;;2.10;1.90;;;16.50;99.90;;;;;;5072133;28;20449;-45
2022/07/08 00:17:41;;;;;;;1.80;1.60;;;16.50;99.90;;;;;;5071889;28;20437;-47
2022/07/08 00:20:10;;;;;;;2.60;1.90;;;16.50;99.90;;;;;;5072046;28;20468;-47
2022/07/08 00:22:37;;;;;;;1.60;1.50;;;16.40;99.90;;;;;;5071728;28;20540;-47
2022/07/08 00:25:05;;;;;;;1.60;1.40;;;16.40;99.90;;;;;;5071743;28;20498;-46
2022/07/08 00:27:32;;;;;;;2.47;1.90;;;16.50;99.90;;;;;;5071832;28;20530;-46
2022/07/08 00:29:59;;;;;;;3.63;1.70;;;16.50;99.90;;;;;;5071608;28;20440;-46
2022/07/08 00:32:26;;;;;;;2.07;1.87;;;16.50;99.90;;;;;;5071749;28;20472;-48
2022/07/08 00:34:55;;;;;;;1.67;1.57;;;16.50;99.90;;;;;;5071600;28;20478;-47
2022/07/08 00:37:22;;;;;;;1.57;1.47;;;16.50;99.90;;;;;;5071130;28;20475;-45
2022/07/08 00:39:49;;;;;;;1.70;1.37;;;16.50;99.90;;;;;;5071170;28;20502;-48
2022/07/08 00:42:16;;;;;;;1.83;1.63;;;16.50;99.90;;;;;;5071457;28;20476;-45
2022/07/08 00:44:43;;;;;;;1.60;1.50;;;16.50;99.90;;;;;;5071528;28;20506;-51
2022/07/08 00:47:10;;;;;;;2.30;1.53;;;16.50;99.90;;;;;;5071493;28;20521;-45
2022/07/08 00:49:37;;;;;;;2.23;1.80;;;16.50;99.90;;;;;;5071147;28;20921;-47
2022/07/08 00:52:07;;;;;;;1.83;1.63;;;16.50;99.90;;;;;;5071261;28;20448;-48
2022/07/08 00:54:34;;;;;;;1.57;1.30;;;16.50;99.90;;;;;;5071373;28;20533;-47
2022/07/08 00:57:02;;;;;;;2.00;1.80;;;16.50;99.90;;;;;;5071377;28;20444;-45
2022/07/08 00:59:29;;;;;;;1.50;1.40;;;16.50;99.90;;;;;;5070375;28;20445;-45
2022/07/08 01:01:57;;;;;;;1.80;1.30;;;16.50;99.90;;;;;;5071134;28;20863;-45
2022/07/08 01:04:24;;;;;;;1.70;1.60;;;16.50;99.90;;;;;;5071028;28;20508;-46
2022/07/08 01:06:51;;;;;;;3.83;2.00;;;16.60;99.90;;;;;;5071081;28;20486;-46
2022/07/08 01:09:20;;;;;;;2.00;1.57;;;16.60;99.90;;;;;;5070784;28;20449;-46
2022/07/08 01:11:47;;;;;;;2.03;1.70;;;16.60;99.90;;;;;;5070753;28;20436;-46
2022/07/08 01:14:15;;;;;;;2.03;1.83;;;16.60;99.90;;;;;;5071023;28;20510;-45
2022/07/08 01:16:42;;;;;;;2.27;2.07;;;16.60;99.90;;;;;;5070873;28;20451;-48
2022/07/08 01:19:09;;;;;;;2.10;1.67;;;16.60;99.90;;;;;;5070943;28;20514;-48
2022/07/08 01:21:37;;;;;;;2.30;1.40;;;16.60;99.90;;;;;;5070437;28;20496;-48
2022/07/08 01:24:05;;;;;;;1.60;1.40;;;16.50;99.90;;;;;;5070579;28;20476;-45
2022/07/08 01:26:32;;;;;;;1.90;1.80;;;16.40;99.90;;;;;;5070532;28;20494;-47
2022/07/08 01:28:59;;;;;;;2.00;1.77;;;16.10;99.90;;;;;;5070299;28;20448;-47
2022/07/08 01:31:27;;;;;;;1.70;1.50;;;16.10;99.90;;;;;;5070620;28;20485;-48
2022/07/08 01:33:54;;;;;;;1.40;1.17;;;16.00;99.90;;;;;;5070519;28;20465;-47
2022/07/08 01:36:21;;;;;;;3.00;1.90;;;16.10;99.90;;;;;;5070434;28;20435;-45
2022/07/08 01:38:49;;;;;;;2.33;1.70;;;16.00;99.90;;;;;;5070225;28;20995;-48
2022/07/08 01:41:16;;;;;;;2.03;1.83;;;16.00;99.90;;;;;;5070136;28;20525;-45
2022/07/08 01:43:43;;;;;;;2.30;2.10;;;15.90;99.90;;;;;;5070221;28;20529;-47
2022/07/08 01:46:10;;;;;;;2.20;1.80;;;15.80;99.90;;;;;;5070337;28;20471;-45
2022/07/08 01:48:37;;;;;;;1.57;1.47;;;15.80;99.90;;;;;;5069663;28;20513;-48
2022/07/08 01:51:04;;;;;;;1.50;1.40;;;15.80;99.90;;;;;;5070269;28;20502;-45
2022/07/08 01:53:31;;;;;;;3.27;1.80;;;15.90;99.90;;;;;;5070171;28;20506;-50
2022/07/08 01:55:59;;;;;;;2.70;1.70;;;16.00;99.90;;;;;;5070181;28;20934;-43
2022/07/08 01:58:27;;;;;;;1.70;1.60;;;16.10;99.90;;;;;;5069968;28;20441;-46
2022/07/08 02:00:54;;;;;;;2.43;1.70;;;16.10;99.90;;;;;;5069397;28;20472;-50
2022/07/08 02:03:21;;;;;;;2.00;1.73;;;16.20;99.90;;;;;;5069980;28;20525;-45
2022/07/08 02:05:48;;;;;;;2.40;1.77;;;16.30;99.90;;;;;;5070087;28;20506;-47
2022/07/08 02:08:14;;;;;;;2.60;2.40;;;16.30;99.90;;;;;;5070259;28;20453;-45
2022/07/08 02:13:27;;;;;;;1.70;1.50;;;16.30;99.90;;;;;;5069928;28;20506;-46
2022/07/08 02:15:54;;;;;;;1.90;1.60;;;16.40;99.90;;;;;;5069930;28;21006;-45
2022/07/08 02:18:21;;;;;;;2.20;1.80;;;16.40;99.90;;;;;;5069861;28;20494;-49
2022/07/08 02:20:48;;;;;;;1.80;1.60;;;16.40;99.90;;;;;;5069523;28;20529;-46
2022/07/08 02:23:15;;;;;;;1.67;1.47;;;16.40;99.90;;;;;;5069666;28;20452;-46
2022/07/08 02:25:42;;;;;;;3.00;2.40;;;16.40;99.90;;;;;;5069842;28;20455;-47
2022/07/08 02:28:09;;;;;;;2.40;1.83;;;16.50;99.90;;;;;;5069936;28;20445;-50
2022/07/08 02:30:38;;;;;;;2.13;1.93;;;16.50;99.90;;;;;;5069638;28;20445;-46
2022/07/08 02:33:05;;;;;;;1.57;1.40;;;16.50;99.90;;;;;;5069712;28;20472;-45
2022/07/08 02:35:31;;;;;;;1.97;1.70;;;16.50;99.90;;;;;;5069728;28;20459;-48
2022/07/08 02:37:58;;;;;;;2.93;1.90;;;16.50;99.90;;;;;;5069952;28;20441;-45
2022/07/08 02:40:25;;;;;;;2.20;1.60;;;16.50;99.90;;;;;;5069327;28;20487;-46
2022/07/08 02:42:52;;;;;;;2.70;2.40;;;16.50;99.90;;;;;;5069565;28;20464;-47
2022/07/08 02:45:19;;;;;;;2.30;1.87;;;16.40;99.90;;;;;;5069760;28;20478;-47
2022/07/08 02:47:48;;;;;;;2.37;1.90;;;16.30;99.90;;;;;;5069469;28;20436;-50
2022/07/08 02:50:15;;;;;;;2.50;2.27;;;16.10;99.90;;;;;;5069292;28;20448;-48
2022/07/08 02:52:42;;;;;;;2.90;1.87;;;16.10;99.90;;;;;;5069564;28;20526;-46
2022/07/08 02:55:09;;;;;;;1.83;1.70;;;16.10;99.90;;;;;;5069535;28;20952;-45
2022/07/08 02:57:36;;;;;;;2.83;2.17;;;16.10;99.90;;;;;;5069277;28;20498;-45
2022/07/08 03:00:04;;;;;;;2.87;1.80;;;16.10;99.90;;;;;;5069324;28;20514;-45
2022/07/08 03:02:31;;;;;;;2.53;1.73;;;16.10;99.90;;;;;;5073298;28;20551;-46
2022/07/08 03:05:00;;;;;;;1.77;1.60;;;16.00;99.90;;;;;;5073540;28;20444;-45
2022/07/08 03:07:27;;;;;;;2.30;2.10;;;16.00;99.90;;;;;;5073132;28;20947;-45
2022/07/08 03:09:54;;;;;;;2.20;2.00;;;16.00;99.90;;;;;;5073235;28;21165;-46
2022/07/08 03:12:21;;;;;;;3.70;2.37;;;16.10;99.90;;;;;;5073228;28;20468;-45
2022/07/08 03:14:48;;;;;;;2.03;1.90;;;16.10;99.90;;;;;;5073223;28;20448;-51
2022/07/08 03:17:15;;;;;;;2.10;1.90;;;16.20;99.90;;;;;;5073235;28;20502;-45
2022/07/08 03:19:42;;;;;;;2.43;2.23;;;16.10;99.90;;;;;;5072752;28;20440;-46
2022/07/08 03:22:10;;;;;;;3.27;1.83;;;16.20;99.90;;;;;;5072704;28;20521;-45
2022/07/08 03:24:37;;;;;;;2.00;1.80;;;16.10;99.90;;;;;;5073086;28;20475;-45
2022/07/08 03:27:05;;;;;;;2.33;2.00;;;16.20;99.90;;;;;;5072935;28;20444;-45
2022/07/08 03:29:32;;;;;;;2.00;1.80;;;16.20;99.90;;;;;;5072605;28;20456;-45
2022/07/08 03:31:59;;;;;;;2.30;2.00;;;16.20;99.90;;;;;;5072867;28;20505;-45
2022/07/08 03:34:26;;;;;;;2.47;2.10;;;16.20;99.90;;;;;;5072693;28;20433;-45
2022/07/08 03:36:53;;;;;;;2.30;1.80;;;16.20;99.90;;;;;;5072831;28;20878;-46
2022/07/08 03:39:22;;;;;;;2.07;1.87;;;16.00;99.90;;;;;;5072454;28;20803;-47
2022/07/08 03:41:49;;;;;;;4.10;2.03;;;16.00;99.90;;;;;;5072461;28;20508;-45
2022/07/08 03:44:16;;;;;;;2.57;2.10;;;16.00;99.90;;;;;;5073870;28;20959;-46
2022/07/08 03:46:43;;;;;;;2.10;1.90;;;16.00;99.90;;;;;;5072651;28;20502;-45
2022/07/08 03:49:10;;;;;;;2.27;1.97;;;16.00;99.90;;;;;;5072174;28;20433;-49
2022/07/08 03:51:37;;;;;;;2.50;2.20;;;16.00;99.90;;;;;;5072669;28;20468;-45
2022/07/08 03:54:04;;;;;;;2.30;2.10;;;15.90;99.90;;;;;;5072571;28;20464;-45
2022/07/08 03:56:33;;;;;;;3.20;2.20;;;15.90;99.90;;;;;;5072468;28;20441;-47
2022/07/08 03:59:00;;;;;;;3.17;2.70;;;16.00;99.90;;;;;;5071537;28;20448;-48
2022/07/08 04:01:27;;;;;;;2.47;2.20;;;15.90;99.90;;;;;;5072272;28;20480;-45
2022/07/08 04:03:53;;;;;;;3.40;2.30;;;15.80;99.90;;;;;;5072240;28;20464;-47
2022/07/08 04:06:21;;;;;;;2.97;2.57;;;15.80;99.90;;;;;;5072291;28;20437;-46
2022/07/08 04:08:48;;;;;;;3.40;2.80;;;15.80;99.90;;;;;;5071977;28;20495;-49
2022/07/08 04:11:15;;;;;;;2.80;2.60;;;15.90;99.90;;;;;;5072098;28;20445;-45
2022/07/08 04:13:43;;;;;;;2.50;2.20;;;15.90;99.90;;;;;;5071215;28;20461;-51
2022/07/08 04:16:12;;;;;;;2.70;2.50;;;16.00;99.90;;;;;;5072061;28;20433;-47
2022/07/08 04:18:39;;;;;;;2.33;2.00;;;16.10;99.90;;;;;;5071924;28;20803;-48
2022/07/08 04:21:07;;;;;;;2.73;2.30;;;16.20;99.90;;;;;;5071922;28;20814;-50
2022/07/08 04:23:34;;;;;;;2.57;2.37;;;16.20;99.90;;;;;;5071793;28;20448;-45
2022/07/08 04:26:01;;;;;;;2.53;2.33;;;16.20;99.90;;;;;;5071688;28;20467;-48
2022/07/08 04:28:28;;;;;;;2.90;2.70;;;15.90;99.90;;;;;;5071731;28;20451;-48
2022/07/08 04:30:57;;;;;;;2.97;2.67;;;15.80;99.90;;;;;;5071598;28;20440;-46
2022/07/08 04:33:24;;;;;;;2.80;2.60;;;15.60;99.90;;;;;;5071516;28;20452;-45
2022/07/08 04:35:51;;;;;;;2.50;2.30;;;15.60;99.90;;;;;;5071969;28;20444;-46
2022/07/08 04:38:18;;;;;;;3.40;3.10;;;15.50;99.90;;;;;;5071800;28;20448;-45
2022/07/08 04:40:45;;;;;;;2.70;2.50;;;15.50;99.90;;;;;;5071515;28;20484;-43
2022/07/08 04:43:12;;;;;;;3.73;2.17;;;15.50;99.90;;;;;;5071417;28;20887;-47
2022/07/08 04:45:39;;;;;;;2.80;2.60;;;15.70;99.90;;;;;;5071325;28;20436;-45
2022/07/08 04:48:08;;;;;;;3.00;2.80;;;15.70;99.90;;;;;;5071271;28;20429;-48
2022/07/08 04:50:35;;;;;;;2.93;2.70;;;15.80;99.90;;;;;;5071399;28;20452;-48
2022/07/08 04:53:02;;;;;;;2.70;2.43;;;15.90;99.90;;;;;;5071649;28;20472;-45
2022/07/08 04:55:29;;;;;;;3.00;2.80;;;16.00;99.90;;;;;;5071317;28;20460;-47
2022/07/08 04:57:57;;;;;;;4.03;3.10;;;16.00;99.90;;;;;;5070934;28;20517;-46
2022/07/08 05:00:24;;;;;;;2.87;2.50;;;16.10;99.90;;;;;;5070631;28;20444;-45
2022/07/08 05:02:51;;;;;;;3.83;3.30;;;16.20;99.90;;;;;;5070802;28;20545;-50
2022/07/08 05:05:21;;;;;;;2.63;2.43;;;16.20;99.90;;;;;;5071103;28;20542;-46
2022/07/08 05:07:48;;;;;;;2.43;2.07;;;16.10;99.90;;;;;;5071294;28;20443;-45
2022/07/08 05:10:16;;;;;;;2.50;2.30;;;16.10;99.90;;;;;;5070797;28;20935;-48
2022/07/08 05:12:44;;;;;;;2.50;2.30;;;16.10;99.90;;;;;;5070994;28;20492;-46
2022/07/08 05:15:12;;;;;;;2.70;1.93;;;16.20;99.90;;;;;;5070940;28;20492;-47
2022/07/08 05:17:39;;;;;;;2.87;2.67;;;16.20;99.90;;;;;;5070875;28;20494;-47
2022/07/08 05:20:08;;;;;;;2.57;2.37;;;16.20;99.90;;;;;;5070479;28;20444;-48
2022/07/08 05:22:37;;;;;;;3.00;2.80;;;16.30;99.90;;;;;;5070519;28;20472;-47
2022/07/08 05:25:04;;;;;;;2.90;2.70;;;16.30;99.90;;;;;;5070531;28;20582;-46
2022/07/08 05:27:31;;;;;;;2.50;2.30;;;16.30;99.90;;;;;;5070656;28;20449;-45
2022/07/08 05:29:58;;;;;;;2.93;2.60;;;16.30;99.90;;;;;;5070638;28;20493;-45
2022/07/08 05:32:25;;;;;;;2.70;2.50;;;16.30;99.90;;;;;;5070489;28;20452;-47
2022/07/08 05:34:52;;;;;;;3.23;2.93;;;16.30;99.90;;;;;;5070575;28;20501;-46
2022/07/08 05:37:19;;;;;;;3.00;2.80;;;16.20;99.90;;;;;;5070367;28;20441;-49
2022/07/08 05:39:48;;;;;;;4.43;3.20;;;16.10;99.90;;;;;;5070168;28;20472;-46
2022/07/08 05:42:14;;;;;;;3.13;2.80;;;16.00;99.90;;;;;;5070057;28;20476;-46
2022/07/08 05:44:41;;;;;;;3.10;2.80;;;16.00;99.90;;;;;;5070281;28;20762;-47
2022/07/08 05:47:09;;;;;;;3.50;3.20;;;16.10;99.90;;;;;;5070413;28;20476;-45
2022/07/08 05:49:37;;;;;;;2.80;2.57;;;16.10;99.90;;;;;;5069979;28;20875;-51
2022/07/08 05:52:04;;;;;;;3.90;2.90;;;16.10;99.90;;;;;;5070207;28;20531;-45
2022/07/08 05:54:32;;;;;;;3.10;2.63;;;16.20;99.90;;;;;;5070181;28;20444;-45
2022/07/08 05:57:00;;;;;;;2.93;2.37;;;16.30;99.90;;;;;;5070258;28;20589;-46
2022/07/08 05:59:29;;;;;;;2.97;2.50;;;16.20;99.90;;;;;;5069313;28;20472;-45
2022/07/08 06:01:56;;;;;;;3.00;2.70;;;16.20;99.90;;;;;;5069894;28;20494;-46
2022/07/08 06:04:23;;;;;;;3.47;3.20;;;16.20;99.90;;;;;;5070109;28;20444;-48
2022/07/08 06:06:50;;;;;;;3.30;3.00;;;16.10;99.90;;;;;;5070159;28;20441;-45
2022/07/08 06:09:17;;;;;;;2.67;2.47;;;16.10;99.90;;;;;;5069620;28;20918;-47
2022/07/08 06:11:44;;;;;;;5.50;2.53;;;15.90;99.90;;;;;;5070081;28;20448;-45
2022/07/08 06:14:13;;;;;;;3.13;2.87;;;15.90;99.90;;;;;;5069819;28;20433;-50
2022/07/08 06:16:40;;;;;;;3.50;2.67;;;15.90;99.90;;;;;;5069949;28;20459;-50
2022/07/08 06:19:06;;;;;;;3.33;3.03;;;15.90;99.90;;;;;;5069610;28;20463;-46
2022/07/08 06:21:34;;;;;;;3.30;3.00;;;15.90;99.90;;;;;;5069793;28;20492;-45
2022/07/08 06:24:01;;;;;;;4.13;3.73;;;16.00;99.90;;;;;;5069709;28;20452;-47
2022/07/08 06:26:29;;;;;;;3.40;3.10;;;16.10;99.90;;;;;;5069689;28;20491;-47
2022/07/08 06:28:56;;;;;;;4.00;3.70;;;15.90;99.90;;;;;;5069328;28;20896;-45
2022/07/08 06:31:24;;;;;;;3.63;3.33;;;15.90;99.90;;;;;;5069687;28;20553;-46
2022/07/08 06:33:56;;;;;;;3.53;3.23;;;16.10;99.90;;;;;;5069668;28;20460;-45
2022/07/08 06:36:23;;;;;;;3.07;2.77;;;16.30;99.90;;;;;;5073000;28;20444;-49
2022/07/08 06:38:50;;;;;;;3.60;3.30;;;16.30;99.90;;;;;;5083904;28;20470;-46
2022/07/08 06:41:17;;;;;;;3.70;3.37;;;16.40;99.90;;;;;;5088318;28;20522;-47
2022/07/08 06:43:45;;;;;;;4.20;2.90;;;16.30;99.90;;;;;;5087651;28;20539;-45
2022/07/08 06:46:12;;;;;;;3.03;2.80;;;16.10;99.90;;;;;;5096490;28;20463;-45
2022/07/08 06:48:40;;;;;;;3.57;2.97;;;15.90;99.90;;;;;;5096361;28;20820;-45
2022/07/08 06:51:07;;;;;;;4.13;2.57;;;15.50;99.90;;;;;;5096412;28;20504;-45
2022/07/08 06:56:15;;;;;;;3.93;2.50;;;14.90;99.90;;;;;;5095347;28;20518;-45
2022/07/08 06:58:42;;;;;;;3.43;2.60;;;14.40;99.90;;;;;;5095567;28;20802;-45
2022/07/08 07:01:10;;;;;;;12.27;3.30;;;14.10;99.90;;;;;;5096367;28;20834;-45
2022/07/08 07:03:37;;;;;;;2.90;2.50;;;14.00;99.90;;;;;;5096280;28;20855;-47
2022/07/08 07:06:06;;;;;;;6.53;2.60;;;13.80;99.90;;;;;;5096572;28;20522;-45
2022/07/08 07:08:33;;;;;;;2.93;2.10;;;13.60;99.90;;;;;;5096554;28;20459;-47
2022/07/08 07:11:00;;;;;;;1.60;1.50;;;13.50;99.90;;;;;;5096469;28;20473;-44
2022/07/08 07:13:27;;;;;;;1.97;1.80;;;13.60;99.90;;;;;;5095723;28;20487;-46
2022/07/08 07:15:54;;;;;;;2.13;1.90;;;13.60;99.90;;;;;;5096358;28;20497;-44
2022/07/08 07:18:21;;;;;;;1.60;1.43;;;13.60;99.90;;;;;;5096221;28;20478;-51
2022/07/08 07:20:48;;;;;;;1.53;1.43;;;13.50;99.90;;;;;;5096412;28;20435;-46
2022/07/08 07:23:17;;;;;;;2.63;1.50;;;13.50;99.90;;;;;;5096204;28;20894;-46
2022/07/08 07:25:44;;;;;;;2.37;1.80;;;13.60;99.90;;;;;;5096014;28;20447;-50
2022/07/08 07:28:11;;;;;;;3.83;1.70;;;13.60;99.90;;;;;;5096060;28;20798;-47
2022/07/08 07:30:38;;;;;;;1.63;1.10;;;13.60;99.90;;;;;;5096112;28;20520;-45
2022/07/08 07:33:04;;;;;;;1.73;1.63;;;13.60;99.90;;;;;;5096139;28;20508;-46
2022/07/08 07:35:31;;;;;;;1.57;1.47;;;13.60;99.90;;;;;;5096021;28;21019;-45
2022/07/08 07:37:58;;;;;;;2.80;1.70;;;13.70;99.90;;;;;;5096460;28;20439;-50
2022/07/08 07:40:27;;;;;;;1.70;1.47;;;13.80;99.90;;;;;;5095997;28;20441;-48
2022/07/08 07:42:54;;;;;;;3.27;1.10;;;13.80;99.90;;;;;;5095571;28;20494;-48
2022/07/08 07:45:21;;;;;;;3.97;1.50;;;13.90;99.90;;;;;;5096162;28;20600;-45
2022/07/08 07:47:48;;;;;;;1.63;1.37;;;14.00;99.90;;;;;;5092653;28;20439;-47
2022/07/08 07:50:15;;;;;;;2.07;1.87;;;14.10;99.90;;;;;;5092211;28;20908;-45
2022/07/08 07:52:42;;;;;;;2.00;1.80;;;14.40;99.90;;;;;;5092823;28;20483;-46
2022/07/08 07:55:09;;;;;;;2.20;1.40;;;14.70;99.90;;;;;;5092716;28;20432;-47
2022/07/08 07:57:38;;;;;;;2.13;1.83;;;14.70;99.90;;;;;;5092583;28;20436;-46
2022/07/08 08:00:09;;;;;;;2.13;1.50;;;14.90;99.90;;;;;;5092132;28;20492;-42
2022/07/08 08:02:36;;;;;;;2.60;1.93;;;15.00;99.90;;;;;;5092842;28;20533;-45
2022/07/08 08:05:03;;;;;;;2.00;1.80;;;14.90;99.90;;;;;;5092781;28;20444;-49
2022/07/08 08:07:30;;;;;;;2.90;1.93;;;15.20;99.90;;;;;;5092870;28;20462;-49
2022/07/08 08:09:57;;;;;;;2.67;1.97;;;15.50;99.90;;;;;;5092166;28;20435;-49
2022/07/08 08:12:23;;;;;;;2.37;2.13;;;15.80;99.90;;;;;;5092344;28;20443;-46
2022/07/08 08:14:52;;;;;;;1.90;1.70;;;16.00;99.90;;;;;;5092418;28;20448;-45
2022/07/08 08:17:19;;;;;;;2.67;1.80;;;16.40;99.90;;;;;;5091768;28;20473;-47
2022/07/08 08:19:46;;;;;;;2.30;2.10;;;16.70;99.90;;;;;;5092048;28;20461;-48
2022/07/08 08:22:12;;;;;;;3.93;2.20;;;17.00;99.90;;;;;;5092548;28;20510;-45
2022/07/08 08:24:39;;;;;;;2.27;1.80;;;17.20;99.90;;;;;;5092394;28;20474;-49
2022/07/08 08:27:06;;;;;;;2.20;2.00;;;17.60;99.90;;;;;;5092333;28;20498;-46
2022/07/08 08:29:33;;;;;;;3.60;1.87;;;17.70;99.90;;;;;;5091909;28;20465;-46
2022/07/08 08:32:02;;;;;;;2.13;1.90;;;17.90;99.90;;;;;;5091633;28;20784;-45
2022/07/08 08:34:29;;;;;;;3.60;2.20;;;17.90;99.90;;;;;;5092130;28;20477;-47
2022/07/08 08:36:56;;;;;;;4.67;1.97;;;18.10;99.90;;;;;;5090903;28;20447;-46
2022/07/08 08:39:23;;;;;;;2.13;1.93;;;18.00;99.90;;;;;;5091779;28;20483;-46
2022/07/08 08:41:50;;;;;;;2.07;1.70;;;18.30;99.90;;;;;;5091691;28;20444;-48
2022/07/08 08:44:17;;;;;;;4.03;2.03;;;18.60;99.90;;;;;;5092158;28;20491;-48
2022/07/08 08:46:45;;;;;;;2.17;1.77;;;18.80;99.90;;;;;;5091878;28;20509;-49
2022/07/08 08:49:17;;;;;;;2.13;1.67;;;18.80;99.90;;;;;;5091554;28;20865;-46
2022/07/08 08:51:48;;;;;;;2.50;2.07;;;18.80;99.90;;;;;;5091793;28;20515;-47
2022/07/08 08:54:16;;;;;;;2.17;1.97;;;18.90;99.90;;;;;;5091688;28;20466;-50
2022/07/08 08:56:44;;;;;;;7.13;3.63;;;19.00;99.90;;;;;;5091806;28;20509;-51
2022/07/08 08:59:12;;;;;;;2.57;1.80;;;19.00;99.90;;;;;;5091078;28;20476;-46
2022/07/08 09:01:40;;;;;;;2.07;1.87;;;18.40;99.90;;;;;;5091600;28;20498;-46
2022/07/08 09:04:10;;;;;;;2.20;1.70;;;18.00;99.90;;;;;;5091189;28;20558;-45
2022/07/08 09:06:38;;;;;;;2.33;1.77;;;18.10;99.90;;;;;;5091545;28;20462;-46
2022/07/08 09:09:05;;;;;;;1.67;1.50;;;18.20;99.90;;;;;;5091293;28;20792;-47
2022/07/08 09:11:33;;;;;;;3.17;1.90;;;18.00;99.90;;;;;;5091273;28;20435;-50
2022/07/08 09:14:15;;;;;;;5.00;1.57;;;18.30;99.90;;;;;;5090695;28;20455;-48
2022/07/08 09:16:44;;;;;;;3.70;1.97;;;17.30;99.90;;;;;;5091414;28;20804;-45
2022/07/08 09:19:14;;;;;;;2.07;1.87;;;17.20;99.90;;;;;;5091201;28;20519;-48
2022/07/08 09:21:52;;;;;;;2.03;1.83;;;17.50;99.90;;;;;;5091111;28;20489;-47
2022/07/08 09:24:20;;;;;;;2.23;2.03;;;17.90;99.90;;;;;;5090945;28;20515;-49
2022/07/08 09:26:47;;;;;;;2.50;2.10;;;18.10;99.90;;;;;;5090766;28;20443;-48
2022/07/08 09:29:14;;;;;;;4.10;2.20;;;18.40;99.90;;;;;;5090900;28;20505;-47
2022/07/08 09:31:41;;;;;;;2.40;2.20;;;18.80;99.90;;;;;;5090953;28;20500;-49
2022/07/08 09:34:11;;;;;;;2.30;2.07;;;18.40;99.90;;;;;;5090823;28;20456;-46
2022/07/08 09:36:50;;;;;;;2.33;2.13;;;18.40;99.90;;;;;;5090788;28;20462;-50
2022/07/08 09:39:26;;;;;;;1.97;1.80;;;18.30;99.90;;;;;;5090451;28;20788;-48
2022/07/08 09:41:53;;;;;;;2.97;2.23;;;18.50;99.90;;;;;;5090536;28;20452;-48
2022/07/08 09:44:23;;;;;;;2.73;1.90;;;18.30;99.90;;;;;;5091586;28;20474;-48
2022/07/08 09:46:51;;;;;;;3.20;2.30;;;18.40;99.90;;;;;;5090382;28;20934;-50
2022/07/08 09:49:28;;;;;;;2.40;1.90;;;18.40;99.90;;;;;;5090317;28;20447;-46
2022/07/08 09:51:57;;;;;;;2.50;1.60;;;18.50;99.90;;;;;;5090276;28;20453;-45
2022/07/08 09:54:25;;;;;;;3.63;2.37;;;18.80;99.90;;;;;;5090398;28;20455;-47
2022/07/08 09:57:00;;;;;;;2.30;2.10;;;18.80;99.90;;;;;;5090251;28;20435;-46
2022/07/08 09:59:27;;;;;;;3.40;1.90;;;18.40;99.90;;;;;;5089840;28;20935;-47
2022/07/08 10:01:54;;;;;;;2.90;2.70;;;17.90;99.90;;;;;;5090230;28;20440;-46
2022/07/08 10:04:23;;;;;;;6.30;3.33;;;17.90;99.90;;;;;;5090314;28;20487;-46
2022/07/08 10:06:51;;;;;;;4.23;2.37;;;17.80;99.90;;;;;;5090212;28;20435;-46
2022/07/08 10:09:20;;;;;;;2.43;2.20;;;17.50;99.90;;;;;;5089463;28;20901;-48
2022/07/08 10:11:48;;;;;;;2.77;2.27;;;17.40;99.90;;;;;;5089563;28;20432;-45
2022/07/08 10:14:16;;;;;;;4.00;2.10;;;17.80;99.90;;;;;;5089160;28;20467;-48
2022/07/08 10:16:46;;;;;;;2.83;2.40;;;18.00;99.90;;;;;;5090059;28;20944;-48
2022/07/08 10:19:17;;;;;;;1.83;1.73;;;18.10;99.90;;;;;;5089712;28;20440;-46
2022/07/08 10:21:50;;;;;;;2.47;2.17;;;18.30;99.90;;;;;;5089838;28;20981;-46
2022/07/08 10:24:22;;;;;;;4.00;2.60;;;18.50;99.90;;;;;;5089696;28;20493;-50
2022/07/08 10:26:50;;;;;;;9.70;6.70;;;18.70;99.90;;;;;;5090054;28;20432;-46
2022/07/08 10:29:17;;;;;;;3.33;2.70;;;18.70;99.90;;;;;;5089711;28;20525;-47
2022/07/08 10:31:46;;;;;;;1.93;1.73;;;18.60;99.90;;;;;;5089974;28;20535;-46
2022/07/08 10:34:13;;;;;;;3.10;2.47;;;18.70;99.90;;;;;;5089680;28;20847;-48
2022/07/08 10:36:47;;;;;;;2.83;2.17;;;18.50;99.90;;;;;;5089903;28;20493;-48
2022/07/08 10:39:15;;;;;;;3.20;2.03;;;18.60;99.90;;;;;;5089047;28;20494;-46
2022/07/08 10:41:57;;;;;;;1.70;1.60;;;18.20;99.90;;;;;;5089682;28;20474;-49
2022/07/08 10:44:52;;;;;;;2.83;2.30;;;18.50;99.90;;;;;;5089724;28;20534;-46
2022/07/08 10:47:28;;;;;;;2.03;1.73;;;18.70;99.90;;;;;;5089475;28;20440;-50
2022/07/08 10:50:05;;;;;;;2.13;1.93;;;19.00;99.90;;;;;;5089456;28;20443;-46
2022/07/08 10:52:33;;;;;;;2.00;1.80;;;19.00;99.90;;;;;;5089479;28;20460;-51
2022/07/08 10:55:13;;;;;;;2.63;2.30;;;18.70;99.90;;;;;;5089310;28;20912;-46
2022/07/08 10:57:54;;;;;;;3.47;1.77;;;18.50;99.90;;;;;;5089412;28;20439;-48
2022/07/08 11:00:22;;;;;;;3.93;2.20;;;18.80;99.90;;;;;;5089268;28;20458;-46
2022/07/08 11:02:50;;;;;;;2.30;2.10;;;18.90;99.90;;;;;;5089076;28;20494;-48
2022/07/08 11:05:37;;;;;;;2.00;1.80;;;18.70;99.90;;;;;;5089285;28;20435;-45
2022/07/08 11:08:23;;;;;;;6.67;2.10;;;19.00;99.90;;;;;;5089031;28;20493;-48
2022/07/08 11:10:52;;;;;;;3.13;2.23;;;19.10;99.90;;;;;;5089350;28;20435;-45
2022/07/08 11:13:23;;;;;;;2.83;2.00;;;19.20;99.90;;;;;;5088982;28;20460;-46
2022/07/08 11:15:50;;;;;;;4.00;2.00;;;18.70;99.90;;;;;;5089437;28;20932;-46
2022/07/08 11:18:22;;;;;;;3.33;1.93;;;18.70;99.90;;;;;;5089457;28;20444;-46
2022/07/08 11:20:49;;;;;;;4.40;2.00;;;19.00;99.90;;;;;;5089320;28;20573;-46
2022/07/08 11:23:20;;;;;;;2.00;1.77;;;19.20;99.90;;;;;;5093055;28;20881;-46
2022/07/08 11:25:48;;;;;;;3.63;1.90;;;19.30;99.90;;;;;;5093137;28;20447;-46
2022/07/08 11:28:24;;;;;;;5.13;2.40;;;19.40;99.90;;;;;;5093039;28;20943;-46
2022/07/08 11:30:52;;;;;;;2.27;1.63;;;19.50;99.90;;;;;;5092756;28;20439;-51
2022/07/08 11:33:19;;;;;;;2.00;1.57;;;19.30;99.90;;;;;;5092811;28;20455;-46
2022/07/08 11:35:46;;;;;;;21.97;4.63;;;18.90;99.90;;;;;;5092858;28;20432;-46
2022/07/08 11:38:33;;;;;;;3.47;1.57;;;18.80;99.90;;;;;;5092944;28;20843;-47
2022/07/08 11:41:00;;;;;;;3.40;1.83;;;18.80;99.90;;;;;;5092673;28;20497;-46
2022/07/08 11:43:30;;;;;;;1.63;1.20;;;18.80;99.90;;;;;;5092609;28;20475;-49
2022/07/08 11:45:57;;;;;;;2.60;2.23;;;18.90;99.90;;;;;;5092897;28;20451;-46
2022/07/08 11:48:36;;;;;;;2.37;1.87;;;18.80;99.90;;;;;;5092869;28;20471;-46
2022/07/08 11:51:03;;;;;;;2.70;1.97;;;18.70;99.90;;;;;;5092335;28;20458;-48
2022/07/08 11:53:31;;;;;;;2.17;1.97;;;18.70;99.90;;;;;;5092632;28;20501;-46
2022/07/08 11:55:58;;;;;;;1.90;1.57;;;18.80;99.90;;;;;;5092940;28;20440;-47
2022/07/08 11:58:25;;;;;;;3.03;1.70;;;18.70;99.90;;;;;;5092933;28;20447;-47
2022/07/08 12:00:54;;;;;;;2.47;2.07;;;18.60;99.90;;;;;;5092225;28;20932;-49
2022/07/08 12:03:21;;;;;;;3.00;1.77;;;18.70;99.90;;;;;;5092414;28;21017;-47
2022/07/08 12:05:49;;;;;;;2.83;2.27;;;18.80;99.90;;;;;;5092526;28;20452;-48
2022/07/08 12:08:18;;;;;;;2.00;1.80;;;19.10;99.90;;;;;;5092349;28;20452;-48
2022/07/08 12:10:45;;;;;;;1.70;1.57;;;19.30;99.90;;;;;;5092228;28;20443;-48
2022/07/08 12:13:12;;;;;;;1.63;1.40;;;19.40;99.90;;;;;;5092428;28;20464;-48
2022/07/08 12:15:39;;;;;;;5.40;1.70;;;19.40;99.90;;;;;;5092605;28;20451;-47
2022/07/08 12:18:07;;;;;;;1.87;1.70;;;19.50;99.90;;;;;;5092188;28;20471;-51
2022/07/08 12:20:35;;;;;;;3.07;2.20;;;19.30;99.90;;;;;;5091998;28;20519;-46
2022/07/08 12:23:03;;;;;;;2.00;1.80;;;19.40;99.90;;;;;;5091635;28;20467;-49
2022/07/08 12:25:47;;;;;;;2.07;1.80;;;19.40;99.90;;;;;;5092283;28;20440;-46
2022/07/08 12:28:14;;;;;;;3.57;2.00;;;19.30;99.90;;;;;;5091630;28;21015;-45
2022/07/08 12:30:42;;;;;;;1.90;1.80;;;19.30;99.90;;;;;;5092041;28;20501;-46
2022/07/08 12:33:10;;;;;;;1.87;1.77;;;19.50;99.90;;;;;;5091393;28;20459;-48
2022/07/08 12:35:37;;;;;;;3.50;1.90;;;19.30;99.90;;;;;;5091925;28;20447;-49
2022/07/08 12:38:06;;;;;;;2.07;1.87;;;19.40;99.90;;;;;;5091869;28;20436;-46
2022/07/08 12:40:40;;;;;;;2.47;2.23;;;19.50;99.90;;;;;;5090813;28;20424;-47
2022/07/08 12:43:09;;;;;;;1.80;1.70;;;19.60;99.90;;;;;;5091185;28;20474;-50
2022/07/08 12:45:36;;;;;;;4.03;1.83;;;19.70;99.90;;;;;;5090756;28;20432;-46
2022/07/08 12:48:04;;;;;;;13.30;3.40;;;19.70;99.90;;;;;;5091185;28;20509;-48
2022/07/08 12:50:33;;;;;;;2.13;1.70;;;19.70;99.90;;;;;;5090937;28;21028;-46
2022/07/08 12:53:01;;;;;;;2.40;1.50;;;19.40;99.90;;;;;;5091719;28;20815;-47
2022/07/08 12:55:28;;;;;;;2.20;1.90;;;19.50;99.90;;;;;;5091053;28;20573;-50